sensor_id;sensor_type;location;lat;lon;timestamp;P1;durP1;ratioP1;P2;durP2;ratioP2
18174;SDS011;9212;50.894;16.714;2023-01-08T00:01:12;13.80;;;7.67;;
18174;SDS011;9212;50.894;16.714;2023-01-08T00:03:40;17.57;;;7.83;;
18174;SDS011;9212;50.894;16.714;2023-01-08T00:06:09;13.80;;;7.10;;
18174;SDS011;9212;50.894;16.714;2023-01-08T00:08:36;9.57;;;5.70;;
18174;SDS011;9212;50.894;16.714;2023-01-08T00:11:04;13.10;;;5.90;;
18174;SDS011;9212;50.894;16.714;2023-01-08T00:13:31;6.57;;;4.30;;
18174;SDS011;9212;50.894;16.714;2023-01-08T00:16:01;11.20;;;4.70;;
18174;SDS011;9212;50.894;16.714;2023-01-08T00:18:30;8.00;;;5.03;;
18174;SDS011;9212;50.894;16.714;2023-01-08T00:20:57;6.93;;;4.10;;
18174;SDS011;9212;50.894;16.714;2023-01-08T00:23:24;9.13;;;4.77;;
18174;SDS011;9212;50.894;16.714;2023-01-08T00:25:52;8.50;;;4.63;;
18174;SDS011;9212;50.894;16.714;2023-01-08T00:28:19;11.53;;;5.53;;
18174;SDS011;9212;50.894;16.714;2023-01-08T00:30:46;9.23;;;4.30;;
18174;SDS011;9212;50.894;16.714;2023-01-08T00:33:13;8.60;;;4.37;;
18174;SDS011;9212;50.894;16.714;2023-01-08T00:35:43;5.00;;;3.60;;
18174;SDS011;9212;50.894;16.714;2023-01-08T00:38:10;5.67;;;4.00;;
18174;SDS011;9212;50.894;16.714;2023-01-08T00:40:37;6.53;;;2.83;;
18174;SDS011;9212;50.894;16.714;2023-01-08T00:43:05;6.50;;;3.33;;
18174;SDS011;9212;50.894;16.714;2023-01-08T00:45:32;3.80;;;3.13;;
18174;SDS011;9212;50.894;16.714;2023-01-08T00:48:00;4.40;;;3.10;;
18174;SDS011;9212;50.894;16.714;2023-01-08T00:50:27;4.07;;;2.43;;
18174;SDS011;9212;50.894;16.714;2023-01-08T00:52:56;5.47;;;2.40;;
18174;SDS011;9212;50.894;16.714;2023-01-08T00:55:23;3.37;;;2.73;;
18174;SDS011;9212;50.894;16.714;2023-01-08T00:57:50;5.23;;;2.47;;
18174;SDS011;9212;50.894;16.714;2023-01-08T01:00:17;2.47;;;2.00;;
18174;SDS011;9212;50.894;16.714;2023-01-08T01:02:45;3.37;;;2.80;;
18174;SDS011;9212;50.894;16.714;2023-01-08T01:05:12;4.27;;;3.00;;
18174;SDS011;9212;50.894;16.714;2023-01-08T01:07:41;2.60;;;2.40;;
18174;SDS011;9212;50.894;16.714;2023-01-08T01:10:10;5.43;;;2.77;;
18174;SDS011;9212;50.894;16.714;2023-01-08T01:12:37;2.80;;;2.20;;
18174;SDS011;9212;50.894;16.714;2023-01-08T01:15:05;3.03;;;2.67;;
18174;SDS011;9212;50.894;16.714;2023-01-08T01:17:33;6.03;;;2.80;;
18174;SDS011;9212;50.894;16.714;2023-01-08T01:20:00;3.20;;;2.70;;
18174;SDS011;9212;50.894;16.714;2023-01-08T01:22:27;2.77;;;2.57;;
18174;SDS011;9212;50.894;16.714;2023-01-08T01:24:54;8.23;;;2.70;;
18174;SDS011;9212;50.894;16.714;2023-01-08T01:27:23;4.90;;;2.70;;
18174;SDS011;9212;50.894;16.714;2023-01-08T01:29:50;3.33;;;2.67;;
18174;SDS011;9212;50.894;16.714;2023-01-08T01:32:18;3.90;;;2.70;;
18174;SDS011;9212;50.894;16.714;2023-01-08T01:34:45;4.77;;;2.87;;
18174;SDS011;9212;50.894;16.714;2023-01-08T01:37:12;5.03;;;3.07;;
18174;SDS011;9212;50.894;16.714;2023-01-08T01:39:40;3.83;;;2.40;;
18174;SDS011;9212;50.894;16.714;2023-01-08T01:42:10;5.03;;;3.00;;
18174;SDS011;9212;50.894;16.714;2023-01-08T01:45:01;3.67;;;2.77;;
18174;SDS011;9212;50.894;16.714;2023-01-08T01:47:29;4.13;;;3.03;;
18174;SDS011;9212;50.894;16.714;2023-01-08T01:49:57;4.70;;;3.03;;
18174;SDS011;9212;50.894;16.714;2023-01-08T01:52:26;10.17;;;3.33;;
18174;SDS011;9212;50.894;16.714;2023-01-08T01:54:55;2.93;;;2.73;;
18174;SDS011;9212;50.894;16.714;2023-01-08T01:57:23;3.27;;;3.07;;
18174;SDS011;9212;50.894;16.714;2023-01-08T01:59:50;3.03;;;2.70;;
18174;SDS011;9212;50.894;16.714;2023-01-08T02:02:20;4.40;;;3.10;;
18174;SDS011;9212;50.894;16.714;2023-01-08T02:04:47;3.97;;;3.23;;
18174;SDS011;9212;50.894;16.714;2023-01-08T02:07:15;4.90;;;3.47;;
18174;SDS011;9212;50.894;16.714;2023-01-08T02:09:46;4.13;;;3.07;;
18174;SDS011;9212;50.894;16.714;2023-01-08T02:12:14;6.73;;;3.90;;
18174;SDS011;9212;50.894;16.714;2023-01-08T02:14:56;3.83;;;3.23;;
18174;SDS011;9212;50.894;16.714;2023-01-08T02:17:29;4.13;;;3.10;;
18174;SDS011;9212;50.894;16.714;2023-01-08T02:20:01;5.23;;;3.40;;
18174;SDS011;9212;50.894;16.714;2023-01-08T02:22:33;6.23;;;3.60;;
18174;SDS011;9212;50.894;16.714;2023-01-08T02:25:03;6.93;;;3.17;;
18174;SDS011;9212;50.894;16.714;2023-01-08T02:27:36;4.30;;;3.73;;
18174;SDS011;9212;50.894;16.714;2023-01-08T02:30:05;4.27;;;3.43;;
18174;SDS011;9212;50.894;16.714;2023-01-08T02:32:33;4.83;;;3.60;;
18174;SDS011;9212;50.894;16.714;2023-01-08T02:35:00;8.07;;;3.57;;
18174;SDS011;9212;50.894;16.714;2023-01-08T02:37:27;4.33;;;3.53;;
18174;SDS011;9212;50.894;16.714;2023-01-08T02:39:57;5.20;;;3.60;;
18174;SDS011;9212;50.894;16.714;2023-01-08T02:42:28;6.30;;;4.63;;
18174;SDS011;9212;50.894;16.714;2023-01-08T02:45:03;3.93;;;3.23;;
18174;SDS011;9212;50.894;16.714;2023-01-08T02:47:32;7.93;;;4.17;;
18174;SDS011;9212;50.894;16.714;2023-01-08T02:50:06;9.60;;;6.17;;
18174;SDS011;9212;50.894;16.714;2023-01-08T02:52:35;7.80;;;4.53;;
18174;SDS011;9212;50.894;16.714;2023-01-08T02:55:04;8.20;;;4.30;;
18174;SDS011;9212;50.894;16.714;2023-01-08T02:57:32;8.40;;;4.23;;
18174;SDS011;9212;50.894;16.714;2023-01-08T02:59:59;7.00;;;4.40;;
18174;SDS011;9212;50.894;16.714;2023-01-08T03:02:29;6.53;;;3.83;;
18174;SDS011;9212;50.894;16.714;2023-01-08T03:05:00;8.27;;;4.73;;
18174;SDS011;9212;50.894;16.714;2023-01-08T03:07:29;6.70;;;3.90;;
18174;SDS011;9212;50.894;16.714;2023-01-08T03:09:57;9.80;;;5.87;;
18174;SDS011;9212;50.894;16.714;2023-01-08T03:12:26;7.20;;;5.47;;
18174;SDS011;9212;50.894;16.714;2023-01-08T03:14:57;14.67;;;7.53;;
18174;SDS011;9212;50.894;16.714;2023-01-08T03:17:25;9.70;;;5.67;;
18174;SDS011;9212;50.894;16.714;2023-01-08T03:19:57;12.33;;;7.03;;
18174;SDS011;9212;50.894;16.714;2023-01-08T03:22:25;14.63;;;7.23;;
18174;SDS011;9212;50.894;16.714;2023-01-08T03:24:53;14.37;;;7.10;;
18174;SDS011;9212;50.894;16.714;2023-01-08T03:27:21;11.93;;;6.30;;
18174;SDS011;9212;50.894;16.714;2023-01-08T03:29:51;14.10;;;7.20;;
18174;SDS011;9212;50.894;16.714;2023-01-08T03:32:20;13.63;;;7.37;;
18174;SDS011;9212;50.894;16.714;2023-01-08T03:34:48;16.93;;;7.87;;
18174;SDS011;9212;50.894;16.714;2023-01-08T03:37:20;14.70;;;7.30;;
18174;SDS011;9212;50.894;16.714;2023-01-08T03:39:48;18.93;;;8.17;;
18174;SDS011;9212;50.894;16.714;2023-01-08T03:42:18;15.37;;;8.57;;
18174;SDS011;9212;50.894;16.714;2023-01-08T03:44:46;14.53;;;8.17;;
18174;SDS011;9212;50.894;16.714;2023-01-08T03:47:13;11.80;;;6.63;;
18174;SDS011;9212;50.894;16.714;2023-01-08T03:49:41;12.87;;;7.13;;
18174;SDS011;9212;50.894;16.714;2023-01-08T03:52:20;13.93;;;7.07;;
18174;SDS011;9212;50.894;16.714;2023-01-08T03:54:48;11.70;;;6.90;;
18174;SDS011;9212;50.894;16.714;2023-01-08T03:57:15;9.50;;;5.90;;
18174;SDS011;9212;50.894;16.714;2023-01-08T03:59:42;10.07;;;5.67;;
18174;SDS011;9212;50.894;16.714;2023-01-08T04:02:10;8.30;;;5.43;;
18174;SDS011;9212;50.894;16.714;2023-01-08T04:04:37;9.40;;;4.40;;
18174;SDS011;9212;50.894;16.714;2023-01-08T04:07:04;7.63;;;4.43;;
18174;SDS011;9212;50.894;16.714;2023-01-08T04:09:33;9.57;;;5.30;;
18174;SDS011;9212;50.894;16.714;2023-01-08T04:12:00;10.77;;;5.90;;
18174;SDS011;9212;50.894;16.714;2023-01-08T04:14:27;6.83;;;4.10;;
18174;SDS011;9212;50.894;16.714;2023-01-08T04:16:55;8.90;;;5.87;;
18174;SDS011;9212;50.894;16.714;2023-01-08T04:19:22;9.03;;;5.33;;
18174;SDS011;9212;50.894;16.714;2023-01-08T04:21:49;15.60;;;7.20;;
18174;SDS011;9212;50.894;16.714;2023-01-08T04:24:16;8.23;;;5.33;;
18174;SDS011;9212;50.894;16.714;2023-01-08T04:26:45;11.00;;;5.73;;
18174;SDS011;9212;50.894;16.714;2023-01-08T04:29:12;7.70;;;5.20;;
18174;SDS011;9212;50.894;16.714;2023-01-08T04:31:40;8.60;;;4.77;;
18174;SDS011;9212;50.894;16.714;2023-01-08T04:34:08;5.97;;;4.50;;
18174;SDS011;9212;50.894;16.714;2023-01-08T04:36:35;8.33;;;5.07;;
18174;SDS011;9212;50.894;16.714;2023-01-08T04:39:02;8.60;;;4.83;;
18174;SDS011;9212;50.894;16.714;2023-01-08T04:41:29;7.17;;;4.83;;
18174;SDS011;9212;50.894;16.714;2023-01-08T04:43:58;8.53;;;4.90;;
18174;SDS011;9212;50.894;16.714;2023-01-08T04:46:25;9.53;;;5.17;;
18174;SDS011;9212;50.894;16.714;2023-01-08T04:48:52;7.87;;;4.97;;
18174;SDS011;9212;50.894;16.714;2023-01-08T04:51:20;6.70;;;4.43;;
18174;SDS011;9212;50.894;16.714;2023-01-08T04:53:47;8.07;;;4.73;;
18174;SDS011;9212;50.894;16.714;2023-01-08T04:56:14;5.77;;;4.03;;
18174;SDS011;9212;50.894;16.714;2023-01-08T04:58:41;8.80;;;4.77;;
18174;SDS011;9212;50.894;16.714;2023-01-08T05:01:10;5.50;;;4.07;;
18174;SDS011;9212;50.894;16.714;2023-01-08T05:03:38;5.33;;;3.63;;
18174;SDS011;9212;50.894;16.714;2023-01-08T05:06:05;6.00;;;4.10;;
18174;SDS011;9212;50.894;16.714;2023-01-08T05:08:33;8.77;;;4.77;;
18174;SDS011;9212;50.894;16.714;2023-01-08T05:11:00;6.27;;;4.47;;
18174;SDS011;9212;50.894;16.714;2023-01-08T05:13:27;7.40;;;4.63;;
18174;SDS011;9212;50.894;16.714;2023-01-08T05:15:57;7.53;;;4.30;;
18174;SDS011;9212;50.894;16.714;2023-01-08T05:18:26;6.80;;;4.43;;
18174;SDS011;9212;50.894;16.714;2023-01-08T05:20:53;6.87;;;3.90;;
18174;SDS011;9212;50.894;16.714;2023-01-08T05:23:20;7.80;;;4.70;;
18174;SDS011;9212;50.894;16.714;2023-01-08T05:25:48;7.17;;;4.50;;
18174;SDS011;9212;50.894;16.714;2023-01-08T05:28:15;6.97;;;4.07;;
18174;SDS011;9212;50.894;16.714;2023-01-08T05:30:42;10.00;;;6.00;;
18174;SDS011;9212;50.894;16.714;2023-01-08T05:33:09;14.03;;;6.80;;
18174;SDS011;9212;50.894;16.714;2023-01-08T05:35:39;11.13;;;6.00;;
18174;SDS011;9212;50.894;16.714;2023-01-08T05:38:06;9.83;;;4.97;;
18174;SDS011;9212;50.894;16.714;2023-01-08T05:40:33;11.13;;;5.57;;
18174;SDS011;9212;50.894;16.714;2023-01-08T05:43:00;7.67;;;5.17;;
18174;SDS011;9212;50.894;16.714;2023-01-08T05:45:29;7.83;;;5.27;;
18174;SDS011;9212;50.894;16.714;2023-01-08T05:47:56;7.57;;;4.73;;
18174;SDS011;9212;50.894;16.714;2023-01-08T05:50:24;8.77;;;4.80;;
18174;SDS011;9212;50.894;16.714;2023-01-08T05:52:52;9.27;;;5.27;;
18174;SDS011;9212;50.894;16.714;2023-01-08T05:55:20;9.20;;;4.67;;
18174;SDS011;9212;50.894;16.714;2023-01-08T05:57:47;8.23;;;4.33;;
18174;SDS011;9212;50.894;16.714;2023-01-08T06:00:14;8.83;;;4.83;;
18174;SDS011;9212;50.894;16.714;2023-01-08T06:02:44;9.60;;;5.07;;
18174;SDS011;9212;50.894;16.714;2023-01-08T06:05:11;6.77;;;4.60;;
18174;SDS011;9212;50.894;16.714;2023-01-08T06:07:39;7.47;;;4.87;;
18174;SDS011;9212;50.894;16.714;2023-01-08T06:10:08;8.03;;;5.03;;
18174;SDS011;9212;50.894;16.714;2023-01-08T06:12:35;7.50;;;5.20;;
18174;SDS011;9212;50.894;16.714;2023-01-08T06:15:03;11.80;;;5.57;;
18174;SDS011;9212;50.894;16.714;2023-01-08T06:17:30;8.10;;;5.13;;
18174;SDS011;9212;50.894;16.714;2023-01-08T06:19:58;9.67;;;5.17;;
18174;SDS011;9212;50.894;16.714;2023-01-08T06:22:25;8.00;;;5.40;;
18174;SDS011;9212;50.894;16.714;2023-01-08T06:24:52;9.83;;;5.60;;
18174;SDS011;9212;50.894;16.714;2023-01-08T06:27:21;11.83;;;5.10;;
18174;SDS011;9212;50.894;16.714;2023-01-08T06:29:48;9.10;;;4.70;;
18174;SDS011;9212;50.894;16.714;2023-01-08T06:32:15;8.97;;;5.77;;
18174;SDS011;9212;50.894;16.714;2023-01-08T06:34:42;8.60;;;5.17;;
18174;SDS011;9212;50.894;16.714;2023-01-08T06:37:09;7.40;;;5.03;;
18174;SDS011;9212;50.894;16.714;2023-01-08T06:39:37;8.43;;;5.00;;
18174;SDS011;9212;50.894;16.714;2023-01-08T06:42:04;9.23;;;5.30;;
18174;SDS011;9212;50.894;16.714;2023-01-08T06:44:33;9.63;;;5.60;;
18174;SDS011;9212;50.894;16.714;2023-01-08T06:47:00;10.30;;;4.77;;
18174;SDS011;9212;50.894;16.714;2023-01-08T06:49:27;10.10;;;5.53;;
18174;SDS011;9212;50.894;16.714;2023-01-08T06:51:54;9.97;;;5.30;;
18174;SDS011;9212;50.894;16.714;2023-01-08T06:54:22;7.60;;;5.30;;
18174;SDS011;9212;50.894;16.714;2023-01-08T06:56:49;8.20;;;4.83;;
18174;SDS011;9212;50.894;16.714;2023-01-08T06:59:16;9.20;;;4.60;;
18174;SDS011;9212;50.894;16.714;2023-01-08T07:01:45;7.83;;;4.90;;
18174;SDS011;9212;50.894;16.714;2023-01-08T07:04:13;10.50;;;5.40;;
18174;SDS011;9212;50.894;16.714;2023-01-08T07:06:40;7.50;;;5.13;;
18174;SDS011;9212;50.894;16.714;2023-01-08T07:09:08;10.27;;;5.17;;
18174;SDS011;9212;50.894;16.714;2023-01-08T07:11:35;6.23;;;4.07;;
18174;SDS011;9212;50.894;16.714;2023-01-08T07:14:02;5.37;;;4.27;;
18174;SDS011;9212;50.894;16.714;2023-01-08T07:16:29;8.43;;;4.50;;
18174;SDS011;9212;50.894;16.714;2023-01-08T07:18:58;6.70;;;4.60;;
18174;SDS011;9212;50.894;16.714;2023-01-08T07:21:25;7.83;;;3.90;;
18174;SDS011;9212;50.894;16.714;2023-01-08T07:23:52;8.67;;;5.63;;
18174;SDS011;9212;50.894;16.714;2023-01-08T07:26:19;12.87;;;6.30;;
18174;SDS011;9212;50.894;16.714;2023-01-08T07:28:46;8.30;;;4.33;;
18174;SDS011;9212;50.894;16.714;2023-01-08T07:31:14;6.10;;;4.53;;
18174;SDS011;9212;50.894;16.714;2023-01-08T07:33:41;8.97;;;4.63;;
18174;SDS011;9212;50.894;16.714;2023-01-08T07:36:10;8.83;;;5.23;;
18174;SDS011;9212;50.894;16.714;2023-01-08T07:38:37;7.17;;;4.53;;
18174;SDS011;9212;50.894;16.714;2023-01-08T07:41:04;9.33;;;5.33;;
18174;SDS011;9212;50.894;16.714;2023-01-08T07:43:32;12.27;;;6.97;;
18174;SDS011;9212;50.894;16.714;2023-01-08T07:46:00;11.47;;;6.00;;
18174;SDS011;9212;50.894;16.714;2023-01-08T07:48:27;8.23;;;4.93;;
18174;SDS011;9212;50.894;16.714;2023-01-08T07:50:59;7.70;;;4.80;;
18174;SDS011;9212;50.894;16.714;2023-01-08T07:53:27;14.60;;;7.70;;
18174;SDS011;9212;50.894;16.714;2023-01-08T07:55:57;10.10;;;5.70;;
18174;SDS011;9212;50.894;16.714;2023-01-08T07:58:25;7.77;;;4.63;;
18174;SDS011;9212;50.894;16.714;2023-01-08T08:00:53;9.87;;;4.83;;
18174;SDS011;9212;50.894;16.714;2023-01-08T08:03:20;12.13;;;5.80;;
18174;SDS011;9212;50.894;16.714;2023-01-08T08:05:47;7.30;;;4.97;;
18174;SDS011;9212;50.894;16.714;2023-01-08T08:08:14;7.23;;;4.87;;
18174;SDS011;9212;50.894;16.714;2023-01-08T08:10:43;8.23;;;5.73;;
18174;SDS011;9212;50.894;16.714;2023-01-08T08:13:11;9.43;;;5.90;;
18174;SDS011;9212;50.894;16.714;2023-01-08T08:15:38;11.97;;;6.13;;
18174;SDS011;9212;50.894;16.714;2023-01-08T08:18:06;9.67;;;5.40;;
18174;SDS011;9212;50.894;16.714;2023-01-08T08:20:33;10.83;;;4.97;;
18174;SDS011;9212;50.894;16.714;2023-01-08T08:23:00;9.70;;;5.07;;
18174;SDS011;9212;50.894;16.714;2023-01-08T08:25:28;8.40;;;5.30;;
18174;SDS011;9212;50.894;16.714;2023-01-08T08:27:57;14.50;;;7.00;;
18174;SDS011;9212;50.894;16.714;2023-01-08T08:30:24;17.43;;;7.30;;
18174;SDS011;9212;50.894;16.714;2023-01-08T08:32:51;17.93;;;8.70;;
18174;SDS011;9212;50.894;16.714;2023-01-08T08:35:19;11.27;;;6.33;;
18174;SDS011;9212;50.894;16.714;2023-01-08T08:37:46;11.47;;;5.97;;
18174;SDS011;9212;50.894;16.714;2023-01-08T08:40:14;13.33;;;7.90;;
18174;SDS011;9212;50.894;16.714;2023-01-08T08:42:41;11.13;;;6.73;;
18174;SDS011;9212;50.894;16.714;2023-01-08T08:45:10;16.07;;;9.07;;
18174;SDS011;9212;50.894;16.714;2023-01-08T08:47:37;39.83;;;16.90;;
18174;SDS011;9212;50.894;16.714;2023-01-08T08:50:05;15.00;;;8.37;;
18174;SDS011;9212;50.894;16.714;2023-01-08T08:52:33;21.63;;;11.40;;
18174;SDS011;9212;50.894;16.714;2023-01-08T08:55:01;30.37;;;14.57;;
18174;SDS011;9212;50.894;16.714;2023-01-08T08:57:28;34.30;;;15.50;;
18174;SDS011;9212;50.894;16.714;2023-01-08T08:59:56;24.03;;;12.57;;
18174;SDS011;9212;50.894;16.714;2023-01-08T09:02:25;28.73;;;14.63;;
18174;SDS011;9212;50.894;16.714;2023-01-08T09:04:52;30.60;;;15.60;;
18174;SDS011;9212;50.894;16.714;2023-01-08T09:07:20;31.87;;;14.17;;
18174;SDS011;9212;50.894;16.714;2023-01-08T09:09:47;24.73;;;12.27;;
18174;SDS011;9212;50.894;16.714;2023-01-08T09:12:14;31.43;;;14.67;;
18174;SDS011;9212;50.894;16.714;2023-01-08T09:14:41;29.57;;;13.50;;
18174;SDS011;9212;50.894;16.714;2023-01-08T09:17:09;27.93;;;14.07;;
18174;SDS011;9212;50.894;16.714;2023-01-08T09:19:37;25.40;;;13.13;;
18174;SDS011;9212;50.894;16.714;2023-01-08T09:22:04;34.70;;;16.13;;
18174;SDS011;9212;50.894;16.714;2023-01-08T09:24:32;36.03;;;17.47;;
18174;SDS011;9212;50.894;16.714;2023-01-08T09:26:59;61.93;;;26.60;;
18174;SDS011;9212;50.894;16.714;2023-01-08T09:29:26;58.17;;;25.37;;
18174;SDS011;9212;50.894;16.714;2023-01-08T09:31:53;86.20;;;34.33;;
18174;SDS011;9212;50.894;16.714;2023-01-08T09:34:23;76.80;;;29.00;;
18174;SDS011;9212;50.894;16.714;2023-01-08T09:36:52;30.27;;;12.00;;
18174;SDS011;9212;50.894;16.714;2023-01-08T09:39:19;24.90;;;10.53;;
18174;SDS011;9212;50.894;16.714;2023-01-08T09:41:47;36.87;;;17.20;;
18174;SDS011;9212;50.894;16.714;2023-01-08T09:44:16;46.07;;;18.77;;
18174;SDS011;9212;50.894;16.714;2023-01-08T09:46:44;29.87;;;14.80;;
18174;SDS011;9212;50.894;16.714;2023-01-08T09:49:13;21.37;;;9.37;;
18174;SDS011;9212;50.894;16.714;2023-01-08T09:51:41;16.27;;;8.47;;
18174;SDS011;9212;50.894;16.714;2023-01-08T09:54:10;17.40;;;9.20;;
18174;SDS011;9212;50.894;16.714;2023-01-08T09:56:40;16.93;;;8.50;;
18174;SDS011;9212;50.894;16.714;2023-01-08T09:59:09;17.97;;;9.00;;
18174;SDS011;9212;50.894;16.714;2023-01-08T10:01:38;17.60;;;8.30;;
18174;SDS011;9212;50.894;16.714;2023-01-08T10:04:11;15.23;;;8.40;;
18174;SDS011;9212;50.894;16.714;2023-01-08T10:06:40;22.47;;;10.30;;
18174;SDS011;9212;50.894;16.714;2023-01-08T10:09:10;14.97;;;7.93;;
18174;SDS011;9212;50.894;16.714;2023-01-08T10:11:39;16.83;;;9.23;;
18174;SDS011;9212;50.894;16.714;2023-01-08T10:14:07;20.47;;;10.27;;
18174;SDS011;9212;50.894;16.714;2023-01-08T10:16:43;14.67;;;7.77;;
18174;SDS011;9212;50.894;16.714;2023-01-08T10:19:12;15.90;;;8.80;;
18174;SDS011;9212;50.894;16.714;2023-01-08T10:21:40;19.80;;;9.90;;
18174;SDS011;9212;50.894;16.714;2023-01-08T10:24:07;20.13;;;9.20;;
18174;SDS011;9212;50.894;16.714;2023-01-08T10:26:36;21.50;;;10.90;;
18174;SDS011;9212;50.894;16.714;2023-01-08T10:29:04;16.90;;;6.67;;
18174;SDS011;9212;50.894;16.714;2023-01-08T10:31:31;18.40;;;9.30;;
18174;SDS011;9212;50.894;16.714;2023-01-08T10:34:05;20.60;;;8.77;;
18174;SDS011;9212;50.894;16.714;2023-01-08T10:36:36;30.83;;;10.53;;
18174;SDS011;9212;50.894;16.714;2023-01-08T10:39:05;16.43;;;8.50;;
18174;SDS011;9212;50.894;16.714;2023-01-08T10:41:37;14.87;;;7.00;;
18174;SDS011;9212;50.894;16.714;2023-01-08T10:44:05;11.67;;;6.10;;
18174;SDS011;9212;50.894;16.714;2023-01-08T10:46:34;11.63;;;6.63;;
18174;SDS011;9212;50.894;16.714;2023-01-08T10:49:03;12.03;;;6.47;;
18174;SDS011;9212;50.894;16.714;2023-01-08T10:51:32;11.23;;;7.07;;
18174;SDS011;9212;50.894;16.714;2023-01-08T10:54:00;15.90;;;8.10;;
18174;SDS011;9212;50.894;16.714;2023-01-08T10:56:28;14.70;;;7.67;;
18174;SDS011;9212;50.894;16.714;2023-01-08T10:58:57;11.53;;;7.33;;
18174;SDS011;9212;50.894;16.714;2023-01-08T11:01:24;12.77;;;7.40;;
18174;SDS011;9212;50.894;16.714;2023-01-08T11:03:52;13.63;;;7.27;;
18174;SDS011;9212;50.894;16.714;2023-01-08T11:06:21;13.37;;;7.00;;
18174;SDS011;9212;50.894;16.714;2023-01-08T11:08:50;11.27;;;6.77;;
18174;SDS011;9212;50.894;16.714;2023-01-08T11:11:18;13.13;;;7.00;;
18174;SDS011;9212;50.894;16.714;2023-01-08T11:13:54;12.17;;;6.70;;
18174;SDS011;9212;50.894;16.714;2023-01-08T11:16:28;17.73;;;8.50;;
18174;SDS011;9212;50.894;16.714;2023-01-08T11:18:57;60.53;;;19.83;;
18174;SDS011;9212;50.894;16.714;2023-01-08T11:21:25;47.67;;;16.90;;
18174;SDS011;9212;50.894;16.714;2023-01-08T11:24:01;23.03;;;10.40;;
18174;SDS011;9212;50.894;16.714;2023-01-08T11:26:35;14.73;;;7.60;;
18174;SDS011;9212;50.894;16.714;2023-01-08T11:29:05;14.70;;;7.40;;
18174;SDS011;9212;50.894;16.714;2023-01-08T11:31:40;14.00;;;7.43;;
18174;SDS011;9212;50.894;16.714;2023-01-08T11:34:11;15.03;;;7.37;;
18174;SDS011;9212;50.894;16.714;2023-01-08T11:36:43;21.90;;;9.07;;
18174;SDS011;9212;50.894;16.714;2023-01-08T11:39:15;13.70;;;7.43;;
18174;SDS011;9212;50.894;16.714;2023-01-08T11:44:37;14.03;;;7.27;;
18174;SDS011;9212;50.894;16.714;2023-01-08T11:47:11;14.17;;;7.93;;
18174;SDS011;9212;50.894;16.714;2023-01-08T11:49:45;15.33;;;7.23;;
18174;SDS011;9212;50.894;16.714;2023-01-08T11:55:14;18.90;;;9.30;;
18174;SDS011;9212;50.894;16.714;2023-01-08T11:57:56;16.23;;;7.57;;
18174;SDS011;9212;50.894;16.714;2023-01-08T12:00:43;14.30;;;7.43;;
18174;SDS011;9212;50.894;16.714;2023-01-08T12:03:15;15.53;;;7.30;;
18174;SDS011;9212;50.894;16.714;2023-01-08T12:05:46;19.90;;;8.67;;
18174;SDS011;9212;50.894;16.714;2023-01-08T12:08:19;19.33;;;8.60;;
18174;SDS011;9212;50.894;16.714;2023-01-08T12:10:59;15.73;;;8.13;;
18174;SDS011;9212;50.894;16.714;2023-01-08T12:13:35;18.40;;;7.50;;
18174;SDS011;9212;50.894;16.714;2023-01-08T12:16:27;13.00;;;7.77;;
18174;SDS011;9212;50.894;16.714;2023-01-08T12:21:48;15.63;;;8.20;;
18174;SDS011;9212;50.894;16.714;2023-01-08T12:24:32;22.33;;;9.20;;
18174;SDS011;9212;50.894;16.714;2023-01-08T12:27:15;22.23;;;9.60;;
18174;SDS011;9212;50.894;16.714;2023-01-08T12:29:54;24.93;;;11.23;;
18174;SDS011;9212;50.894;16.714;2023-01-08T12:32:31;22.53;;;8.83;;
18174;SDS011;9212;50.894;16.714;2023-01-08T12:35:04;17.73;;;8.90;;
18174;SDS011;9212;50.894;16.714;2023-01-08T12:37:38;17.27;;;7.97;;
18174;SDS011;9212;50.894;16.714;2023-01-08T12:40:14;25.83;;;14.17;;
18174;SDS011;9212;50.894;16.714;2023-01-08T12:42:45;27.07;;;12.33;;
18174;SDS011;9212;50.894;16.714;2023-01-08T12:45:16;33.40;;;13.50;;
18174;SDS011;9212;50.894;16.714;2023-01-08T12:47:47;22.77;;;10.47;;
18174;SDS011;9212;50.894;16.714;2023-01-08T12:50:22;28.43;;;11.83;;
18174;SDS011;9212;50.894;16.714;2023-01-08T12:52:57;20.93;;;8.60;;
18174;SDS011;9212;50.894;16.714;2023-01-08T12:55:30;27.03;;;10.77;;
18174;SDS011;9212;50.894;16.714;2023-01-08T12:58:08;18.40;;;9.07;;
18174;SDS011;9212;50.894;16.714;2023-01-08T13:00:45;21.90;;;9.73;;
18174;SDS011;9212;50.894;16.714;2023-01-08T13:03:18;19.70;;;8.73;;
18174;SDS011;9212;50.894;16.714;2023-01-08T13:05:48;16.83;;;7.90;;
18174;SDS011;9212;50.894;16.714;2023-01-08T13:11:01;16.87;;;8.17;;
18174;SDS011;9212;50.894;16.714;2023-01-08T13:13:29;14.43;;;6.87;;
18174;SDS011;9212;50.894;16.714;2023-01-08T13:16:06;14.50;;;7.60;;
18174;SDS011;9212;50.894;16.714;2023-01-08T13:18:34;16.70;;;8.03;;
18174;SDS011;9212;50.894;16.714;2023-01-08T13:21:03;15.73;;;8.63;;
18174;SDS011;9212;50.894;16.714;2023-01-08T13:23:32;16.47;;;8.67;;
18174;SDS011;9212;50.894;16.714;2023-01-08T13:26:00;20.37;;;10.23;;
18174;SDS011;9212;50.894;16.714;2023-01-08T13:28:29;19.27;;;9.80;;
18174;SDS011;9212;50.894;16.714;2023-01-08T13:31:05;20.93;;;9.83;;
18174;SDS011;9212;50.894;16.714;2023-01-08T13:33:37;23.07;;;10.80;;
18174;SDS011;9212;50.894;16.714;2023-01-08T13:36:14;21.00;;;10.00;;
18174;SDS011;9212;50.894;16.714;2023-01-08T13:38:42;21.33;;;11.33;;
18174;SDS011;9212;50.894;16.714;2023-01-08T13:41:23;22.37;;;11.00;;
18174;SDS011;9212;50.894;16.714;2023-01-08T13:43:50;16.10;;;7.87;;
18174;SDS011;9212;50.894;16.714;2023-01-08T13:46:22;19.07;;;9.53;;
18174;SDS011;9212;50.894;16.714;2023-01-08T13:48:52;22.00;;;10.83;;
18174;SDS011;9212;50.894;16.714;2023-01-08T13:57:04;35.10;;;15.67;;
18174;SDS011;9212;50.894;16.714;2023-01-08T13:59:41;24.77;;;12.50;;
18174;SDS011;9212;50.894;16.714;2023-01-08T14:02:22;26.63;;;12.50;;
18174;SDS011;9212;50.894;16.714;2023-01-08T14:04:50;27.07;;;11.87;;
18174;SDS011;9212;50.894;16.714;2023-01-08T14:07:18;34.50;;;14.73;;
18174;SDS011;9212;50.894;16.714;2023-01-08T14:09:45;30.73;;;14.67;;
18174;SDS011;9212;50.894;16.714;2023-01-08T14:12:14;29.23;;;12.97;;
18174;SDS011;9212;50.894;16.714;2023-01-08T14:14:46;36.30;;;16.53;;
18174;SDS011;9212;50.894;16.714;2023-01-08T14:17:16;32.93;;;14.60;;
18174;SDS011;9212;50.894;16.714;2023-01-08T14:19:45;26.53;;;11.57;;
18174;SDS011;9212;50.894;16.714;2023-01-08T14:22:14;25.50;;;12.50;;
18174;SDS011;9212;50.894;16.714;2023-01-08T14:24:43;23.97;;;11.30;;
18174;SDS011;9212;50.894;16.714;2023-01-08T14:27:20;25.90;;;13.23;;
18174;SDS011;9212;50.894;16.714;2023-01-08T14:29:48;56.40;;;25.53;;
18174;SDS011;9212;50.894;16.714;2023-01-08T14:32:16;63.47;;;28.43;;
18174;SDS011;9212;50.894;16.714;2023-01-08T14:34:44;35.57;;;16.77;;
18174;SDS011;9212;50.894;16.714;2023-01-08T14:37:12;23.80;;;11.53;;
18174;SDS011;9212;50.894;16.714;2023-01-08T14:39:40;21.63;;;10.03;;
18174;SDS011;9212;50.894;16.714;2023-01-08T14:42:09;24.30;;;11.43;;
18174;SDS011;9212;50.894;16.714;2023-01-08T14:45:01;15.10;;;8.77;;
18174;SDS011;9212;50.894;16.714;2023-01-08T14:47:32;38.23;;;19.63;;
18174;SDS011;9212;50.894;16.714;2023-01-08T14:50:02;32.67;;;18.47;;
18174;SDS011;9212;50.894;16.714;2023-01-08T14:52:29;20.63;;;10.00;;
18174;SDS011;9212;50.894;16.714;2023-01-08T14:54:57;30.00;;;15.53;;
18174;SDS011;9212;50.894;16.714;2023-01-08T14:57:27;60.13;;;36.57;;
18174;SDS011;9212;50.894;16.714;2023-01-08T14:59:55;72.30;;;42.87;;
18174;SDS011;9212;50.894;16.714;2023-01-08T15:02:27;73.60;;;41.77;;
18174;SDS011;9212;50.894;16.714;2023-01-08T15:05:00;19.37;;;10.17;;
18174;SDS011;9212;50.894;16.714;2023-01-08T15:07:28;27.80;;;13.30;;